LIMW METAR and TAF | Updated Today

LIMW METAR

Aosta Airport

Observation time: 5:21 hr. ago

LIMW 051620Z AUTO 10017G28KT 060V190 9999 NCD 06/M01 Q1026

Need help? Read our tutorial on how to read METARs or read the parsed version below.

Aosta Airport (LIMW) METAR

  • Weather conditions on Sun, 05 Feb 2023 16:20:00 +0000 (5:21 hr. ago):
  • Present conditions: Dry
  • Clouds: Nil cloud detected
  • Visibility: Greater than 10 km
  • Wind: 100 degrees at 17 knots
  • Temperature: 6 celsius
  • Dew point: -1 celsius
  • Pressure: 1026 millibars
  • Remarks: None


Useful to know...

LIMW TAF

Aosta Airport

TAF LIMW 051400Z 0515/0524 10012KT CAVOK
Observation time: 7:41 hr. ago
Need help? Read our tutorial on how to read TAFs or read the parsed version below.

Parsed version of TAF for Aosta Airport (LIMW)

  • From 05 February at 15:00 UTC, to day 05 of the month at 24:00 UTC
  • Visibility: Greater than 10 km
  • Wind: 100 degrees at 12